createdAt,value
2023-09-17T00:00:32.614Z,0.857143
2023-09-17T00:01:32.663Z,0.857143
2023-09-17T00:02:32.672Z,0.857143
2023-09-17T00:03:24.500Z,0
2023-09-17T00:03:32.699Z,0.857143
2023-09-17T00:04:24.575Z,0
2023-09-17T00:04:32.649Z,0.857143
2023-09-17T00:05:24.463Z,0
2023-09-17T00:05:32.630Z,0.857143
2023-09-17T00:06:24.478Z,0
2023-09-17T00:06:32.645Z,0.857143
2023-09-17T00:07:24.540Z,0
2023-09-17T00:07:32.704Z,0.857143
2023-09-17T00:08:24.500Z,0
2023-09-17T00:09:24.509Z,0
2023-09-17T00:10:24.653Z,0
2023-09-17T00:11:24.538Z,0
2023-09-17T00:12:24.564Z,0
2023-09-17T00:13:30.109Z,0.857143
2023-09-17T00:14:30.121Z,0.857143
2023-09-17T00:15:30.134Z,0.857143
2023-09-17T00:16:30.292Z,0.857143
2023-09-17T00:17:30.235Z,0.857143
2023-09-17T00:18:30.173Z,0.857143
2023-09-17T00:19:30.260Z,0.857143
2023-09-17T00:20:30.194Z,0.857143
2023-09-17T00:21:30.202Z,0.857143
2023-09-17T00:22:30.272Z,0.857143
2023-09-17T00:23:24.676Z,0
2023-09-17T00:23:32.808Z,0.857143
2023-09-17T00:24:24.661Z,0
2023-09-17T00:24:32.789Z,0.857143
2023-09-17T00:25:24.694Z,0
2023-09-17T00:25:32.859Z,0.857143
2023-09-17T00:26:24.681Z,0
2023-09-17T00:27:24.681Z,0
2023-09-17T00:28:24.719Z,0
2023-09-17T00:29:24.685Z,0
2023-09-17T00:29:32.847Z,0.857143
2023-09-17T00:30:24.688Z,0
2023-09-17T00:30:32.864Z,0.857143
2023-09-17T00:31:24.733Z,0
2023-09-17T00:31:32.918Z,0.857143
2023-09-17T00:32:24.715Z,0
2023-09-17T00:32:32.882Z,0.857143
2023-09-17T00:33:24.743Z,0
2023-09-17T00:33:32.860Z,0.857143
2023-09-17T00:34:32.923Z,0.857143
2023-09-17T00:35:32.877Z,0.857143
2023-09-17T00:36:32.892Z,0.857143
2023-09-17T00:37:32.926Z,0.857143
2023-09-17T00:38:32.932Z,0.857143
2023-09-17T00:39:32.939Z,0.857143
2023-09-17T00:40:33.172Z,0.857143
2023-09-17T00:41:32.968Z,0.857143
2023-09-17T00:42:32.976Z,0.857143
2023-09-17T00:43:33.025Z,0.857143
2023-09-17T00:44:32.984Z,0.857143
2023-09-17T01:17:25.132Z,0
2023-09-17T01:18:25.153Z,0
2023-09-17T01:19:30.774Z,0.857143
2023-09-17T01:20:30.841Z,0.857143
2023-09-17T01:21:25.158Z,0
2023-09-17T01:21:30.759Z,0.857143
2023-09-17T01:22:25.183Z,0
2023-09-17T01:23:25.186Z,0
2023-09-17T01:24:25.197Z,0
2023-09-17T01:25:25.242Z,0
2023-09-17T01:26:25.233Z,0
2023-09-17T01:27:25.245Z,0
2023-09-17T01:28:25.292Z,0
2023-09-17T01:29:25.255Z,0
2023-09-17T01:30:25.257Z,0
2023-09-17T01:31:25.357Z,0
2023-09-17T01:32:25.291Z,0
2023-09-17T01:32:30.862Z,0.857143
2023-09-17T01:33:30.925Z,0.857143
2023-09-17T01:34:31.716Z,0.857143
2023-09-17T01:34:33.505Z,0.857143
2023-09-17T01:35:30.859Z,0.857143
2023-09-17T01:35:33.443Z,0.857143
2023-09-17T01:36:30.905Z,0.857143
2023-09-17T01:36:33.475Z,0.857143
2023-09-17T01:37:30.909Z,0.857143
2023-09-17T01:37:33.491Z,0.857143
2023-09-17T01:38:30.893Z,0.857143
2023-09-17T01:39:30.898Z,0.857143
2023-09-17T01:40:30.954Z,0.857143
2023-09-17T01:41:30.918Z,0.857143
2023-09-17T01:42:30.924Z,0.857143
2023-09-17T01:43:30.970Z,0.857143
2023-09-17T01:44:30.930Z,0.857143
2023-09-17T01:45:30.983Z,0.857143
2023-09-17T01:46:30.977Z,0.857143
2023-09-17T01:47:31.053Z,0.857143
2023-09-17T01:48:30.998Z,0.857143
2023-09-17T01:49:31.063Z,0.857143
2023-09-17T01:50:31.017Z,0.857143
2023-09-17T01:51:31.026Z,0.857143
2023-09-17T01:52:31.041Z,0.857143
2023-09-17T01:53:31.039Z,0.857143
2023-09-17T01:54:31.046Z,0.857143
2023-09-17T01:55:31.077Z,0.857143
2023-09-17T01:56:31.055Z,0.857143
2023-09-17T01:57:25.469Z,0
2023-09-17T01:57:33.614Z,0.857143
2023-09-17T01:58:25.487Z,0
2023-09-17T01:58:33.648Z,0.857143
2023-09-17T01:59:25.487Z,0
2023-09-17T01:59:33.625Z,0.857143
2023-09-17T02:00:25.505Z,0
2023-09-17T02:00:33.646Z,0.857143
2023-09-17T02:01:25.530Z,0
2023-09-17T02:01:33.764Z,0.857143
2023-09-17T02:02:27.024Z,0
2023-09-17T02:02:33.756Z,0.857143
2023-09-17T02:03:25.612Z,0
2023-09-17T02:03:33.814Z,0.857143
2023-09-17T02:04:25.604Z,0
2023-09-17T02:04:33.739Z,0.857143
2023-09-17T02:05:25.571Z,0
2023-09-17T02:05:33.688Z,0.857143
2023-09-17T02:12:33.739Z,0.857143
2023-09-17T02:13:33.802Z,0.857143
2023-09-17T02:14:33.756Z,0.857143
2023-09-17T02:15:33.804Z,0.857143
2023-09-17T02:16:33.858Z,0.857143
2023-09-17T02:17:33.783Z,0.857143
2023-09-17T02:18:33.790Z,0.857143
2023-09-17T02:19:33.824Z,0.857143
2023-09-17T02:20:33.798Z,0.857143
2023-09-17T02:21:31.257Z,0.857143
2023-09-17T02:21:33.797Z,0.857143
2023-09-17T02:22:31.362Z,0.857143
2023-09-17T02:22:33.850Z,0.857143
2023-09-17T02:23:31.291Z,0.857143
2023-09-17T02:23:33.806Z,0.857143
2023-09-17T02:24:31.280Z,0.857143
2023-09-17T02:24:33.838Z,0.857143
2023-09-17T02:25:31.316Z,0.857143
2023-09-17T02:25:33.863Z,0.857143
2023-09-17T02:26:31.309Z,0.857143
2023-09-17T02:26:33.861Z,0.857143
2023-09-17T02:27:31.319Z,0.857143
2023-09-17T02:27:33.865Z,0.857143
2023-09-17T02:28:25.780Z,0
2023-09-17T02:28:31.349Z,0.857143
2023-09-17T02:28:33.905Z,0.857143
2023-09-17T02:29:31.337Z,0.857143
2023-09-17T02:29:33.889Z,0.857143
2023-09-17T02:30:31.338Z,0.857143
2023-09-17T02:30:33.897Z,0.857143
2023-09-17T02:31:31.390Z,0.857143
2023-09-17T02:31:33.936Z,0.857143
2023-09-17T02:32:31.399Z,0.857143
2023-09-17T02:32:33.922Z,0.857143
2023-09-17T02:33:31.356Z,0.857143
2023-09-17T02:34:31.395Z,0.857143
2023-09-17T02:35:31.365Z,0.857143
2023-09-17T02:36:31.365Z,0.857143
2023-09-17T02:37:31.400Z,0.857143
2023-09-17T02:38:31.383Z,0.857143
2023-09-17T02:39:31.397Z,0.857143
2023-09-17T02:40:31.438Z,0.857143
2023-09-17T02:40:34.031Z,0.857143
2023-09-17T02:41:31.426Z,0.857143
2023-09-17T02:41:34.014Z,0.857143
2023-09-17T02:42:34.011Z,0.857143
2023-09-17T02:43:34.034Z,0.857143
2023-09-17T02:44:34.033Z,0.857143
2023-09-17T02:45:34.019Z,0.857143
2023-09-17T02:46:34.069Z,0.857143
2023-09-17T02:47:34.117Z,0.857143
2023-09-17T02:48:34.048Z,0.857143
2023-09-17T02:49:34.116Z,0.857143
2023-09-17T02:50:34.071Z,0.857143
2023-09-17T02:51:34.087Z,0.857143
2023-09-17T02:52:34.129Z,0.857143
2023-09-17T02:53:34.134Z,0.857143
2023-09-17T02:54:34.186Z,0.857143
2023-09-17T02:55:34.149Z,0.857143
2023-09-17T02:56:34.152Z,0.857143
2023-09-17T02:57:34.162Z,0.857143
2023-09-17T02:58:34.193Z,0.857143
2023-09-17T03:11:26.063Z,0
2023-09-17T03:12:26.073Z,0
2023-09-17T03:13:26.108Z,0
2023-09-17T03:14:26.085Z,0
2023-09-17T03:15:26.096Z,0
2023-09-17T03:16:26.219Z,0
2023-09-17T03:17:26.292Z,0
2023-09-17T03:18:26.133Z,0
2023-09-17T03:19:26.142Z,0
2023-09-17T03:19:31.685Z,0.857143
2023-09-17T03:20:26.150Z,0
2023-09-17T03:20:31.682Z,0.857143
2023-09-17T03:21:26.153Z,0
2023-09-17T03:21:31.695Z,0.857143
2023-09-17T03:22:26.215Z,0
2023-09-17T03:22:31.731Z,0.857143
2023-09-17T03:22:34.409Z,0.857143
2023-09-17T03:23:26.174Z,0
2023-09-17T03:23:31.726Z,0.857143
2023-09-17T03:23:34.397Z,0.857143
2023-09-17T03:24:26.177Z,0
2023-09-17T03:24:31.736Z,0.857143
2023-09-17T03:24:34.401Z,0.857143
2023-09-17T03:25:26.207Z,0
2023-09-17T03:25:31.761Z,0.857143
2023-09-17T03:25:34.440Z,0.857143
2023-09-17T03:26:26.209Z,0
2023-09-17T03:26:31.764Z,0.857143
2023-09-17T03:26:34.415Z,0.857143
2023-09-17T03:27:26.238Z,0
2023-09-17T03:27:31.758Z,0.857143
2023-09-17T03:28:26.265Z,0
2023-09-17T03:28:31.808Z,0.857143
2023-09-17T03:29:26.282Z,0
2023-09-17T03:29:31.850Z,0.857143
2023-09-17T03:30:26.241Z,0
2023-09-17T03:31:26.328Z,0
2023-09-17T03:32:26.257Z,0
2023-09-17T03:33:26.299Z,0
2023-09-17T03:34:26.323Z,0
2023-09-17T03:36:34.532Z,0.857143
2023-09-17T03:37:34.559Z,0.857143
2023-09-17T03:38:34.545Z,0.857143
2023-09-17T03:39:34.565Z,0.857143
2023-09-17T03:45:26.397Z,0
2023-09-17T03:46:26.517Z,0
2023-09-17T03:47:26.433Z,0
2023-09-17T03:48:31.929Z,0.857143
2023-09-17T03:49:31.981Z,0.857143
2023-09-17T03:50:31.970Z,0.857143
2023-09-17T03:51:31.948Z,0.857143
2023-09-17T03:52:31.998Z,0.857143
2023-09-17T03:53:31.969Z,0.857143
2023-09-17T03:54:31.981Z,0.857143
2023-09-17T03:55:32.007Z,0.857143
2023-09-17T03:56:31.998Z,0.857143
2023-09-17T03:57:34.711Z,0.857143
2023-09-17T03:58:34.778Z,0.857143
2023-09-17T03:59:34.731Z,0.857143
2023-09-17T04:00:34.738Z,0.857143
2023-09-17T04:01:34.817Z,0.857143
2023-09-17T04:02:34.883Z,0.857143
2023-09-17T04:03:34.807Z,0.857143
2023-09-17T04:04:34.791Z,0.857143
2023-09-17T04:05:34.771Z,0.857143
2023-09-17T04:06:34.788Z,0.857143
2023-09-17T04:07:34.813Z,0.857143
2023-09-17T04:08:34.803Z,0.857143
2023-09-17T04:09:34.819Z,0.857143
2023-09-17T04:10:34.867Z,0.857143
2023-09-17T04:11:34.831Z,0.857143
2023-09-17T04:12:26.626Z,0
2023-09-17T04:12:34.836Z,0.857143
2023-09-17T04:13:34.866Z,0.857143
2023-09-17T04:14:32.166Z,0.857143
2023-09-17T04:14:34.854Z,0.857143
2023-09-17T04:15:32.202Z,0.857143
2023-09-17T04:15:34.857Z,0.857143
2023-09-17T04:16:34.921Z,0.857143
2023-09-17T04:17:34.883Z,0.857143
2023-09-17T04:18:34.872Z,0.857143
2023-09-17T04:19:34.893Z,0.857143
2023-09-17T04:20:34.892Z,0.857143
2023-09-17T04:21:34.906Z,0.857143
2023-09-17T04:22:34.994Z,2.5
2023-09-17T04:23:34.937Z,4.21429
2023-09-17T04:24:34.945Z,5
2023-09-17T04:25:34.962Z,5.85714
2023-09-17T04:26:34.963Z,5.85714
2023-09-17T04:27:34.970Z,5.85714
2023-09-17T04:28:35.011Z,5.85714
2023-09-17T04:29:34.981Z,11.7143
2023-09-17T04:30:34.986Z,11.7143
2023-09-17T04:31:35.072Z,15.8571
2023-09-17T04:32:35.072Z,15.8571
2023-09-17T04:33:26.882Z,20.8571
2023-09-17T04:33:35.007Z,20
2023-09-17T04:34:26.833Z,20.8571
2023-09-17T04:34:35.088Z,25
2023-09-17T04:35:26.833Z,27.5
2023-09-17T04:35:35.035Z,29.2143
2023-09-17T04:36:26.828Z,33.3571
2023-09-17T04:36:35.040Z,31.7143
2023-09-17T04:37:26.868Z,33.3571
2023-09-17T04:37:35.070Z,35.8571
2023-09-17T04:38:26.840Z,33.3571
2023-09-17T04:38:35.052Z,35.8571
2023-09-17T04:39:26.886Z,49.2143
2023-09-17T04:39:35.062Z,46.7143
2023-09-17T04:40:27.007Z,49.2143
2023-09-17T04:41:26.899Z,49.2143
2023-09-17T04:42:26.903Z,65
2023-09-17T04:53:27.021Z,191.714
2023-09-17T04:54:26.996Z,254.214
2023-09-17T04:55:27.142Z,287.5
2023-09-17T04:56:26.987Z,329.214
2023-09-17T04:57:26.996Z,374.214
2023-09-17T04:58:27.084Z,402.5
2023-09-17T04:59:32.590Z,433.357
2023-09-17T05:00:32.602Z,455.857
2023-09-17T05:01:32.748Z,477.5
2023-09-17T05:02:32.759Z,495
2023-09-17T05:03:32.736Z,512.5
2023-09-17T05:25:32.914Z,810
2023-09-17T05:26:32.843Z,815
2023-09-17T05:27:32.855Z,815
2023-09-17T05:28:32.912Z,812.5
2023-09-17T05:29:27.382Z,813.357
2023-09-17T05:29:32.945Z,815.857
2023-09-17T05:30:27.293Z,826.714
2023-09-17T05:30:32.924Z,834.214
2023-09-17T05:31:27.327Z,844.214
2023-09-17T05:31:35.571Z,854.214
2023-09-17T05:32:27.372Z,865
2023-09-17T05:32:32.981Z,863.357
2023-09-17T05:32:35.600Z,866.714
2023-09-17T05:33:27.317Z,887.5
2023-09-17T05:33:32.884Z,881.714
2023-09-17T05:33:35.562Z,882.5
2023-09-17T05:34:27.382Z,901.714
2023-09-17T05:34:32.967Z,881.714
2023-09-17T05:34:35.659Z,903.357
2023-09-17T05:35:27.346Z,901.714
2023-09-17T05:35:32.900Z,881.714
2023-09-17T05:35:35.600Z,915
2023-09-17T05:36:27.348Z,922.5
2023-09-17T05:36:32.923Z,922.5
2023-09-17T05:36:35.588Z,920.857
2023-09-17T05:37:27.391Z,926.714
2023-09-17T05:37:33.001Z,926.714
2023-09-17T05:37:35.612Z,926.714
2023-09-17T05:38:32.952Z,927.5
2023-09-17T05:38:35.611Z,926.714
2023-09-17T05:39:32.968Z,929.214
2023-09-17T05:39:35.615Z,929.214
2023-09-17T05:40:33.012Z,930.857
2023-09-17T05:40:35.681Z,929.214
2023-09-17T05:41:32.985Z,931.714
2023-09-17T05:42:33.001Z,940.857
2023-09-17T05:43:33.049Z,945.857
2023-09-17T05:44:35.662Z,953.357
2023-09-17T05:45:35.684Z,967.5
2023-09-17T05:46:35.745Z,967.5
2023-09-17T05:47:35.739Z,980
2023-09-17T05:48:35.728Z,978.357
2023-09-17T05:49:35.743Z,975.857
2023-09-17T05:50:35.756Z,975.857
2023-09-17T05:51:35.733Z,967.5
2023-09-17T05:52:35.767Z,967.5
2023-09-17T05:53:35.746Z,983.357
2023-09-17T05:54:35.755Z,991.714
2023-09-17T05:55:35.801Z,986.714
2023-09-17T05:56:33.111Z,990.857
2023-09-17T05:56:35.780Z,986.714
2023-09-17T05:57:27.548Z,992.5
2023-09-17T05:57:33.125Z,994.214
2023-09-17T05:57:35.793Z,986.714
2023-09-17T05:58:27.568Z,994.214
2023-09-17T05:58:33.166Z,995
2023-09-17T05:58:35.845Z,994.214
2023-09-17T05:59:29.301Z,994.214
2023-09-17T05:59:33.156Z,997.5
2023-09-17T05:59:35.800Z,997.5
2023-09-17T06:00:27.580Z,994.214
2023-09-17T06:00:33.131Z,997.5
2023-09-17T06:00:35.820Z,997.5
2023-09-17T06:01:27.726Z,969.214
2023-09-17T06:01:33.196Z,972.5
2023-09-17T06:01:35.879Z,970
2023-09-17T06:02:27.671Z,972.5
2023-09-17T06:02:33.202Z,980
2023-09-17T06:02:35.842Z,980.857
2023-09-17T06:03:27.625Z,982.5
2023-09-17T06:03:33.206Z,984.214
2023-09-17T06:03:35.881Z,983.357
2023-09-17T06:04:27.781Z,990.857
2023-09-17T06:04:33.245Z,990
2023-09-17T06:05:27.609Z,990.857
2023-09-17T06:05:33.184Z,1003.36
2023-09-17T06:06:27.626Z,1016.71
2023-09-17T06:06:33.191Z,1050
2023-09-17T06:07:27.681Z,1140
2023-09-17T06:07:33.247Z,1141.71
2023-09-17T06:08:27.690Z,1093.36
2023-09-17T06:08:33.214Z,1085.86
2023-09-17T06:09:33.215Z,1036.71
2023-09-17T06:10:33.259Z,1035
2023-09-17T06:11:33.230Z,1052.5
2023-09-17T06:12:33.226Z,1061.71
2023-09-17T06:13:33.294Z,1086.71
2023-09-17T06:14:33.242Z,1106.71
2023-09-17T06:15:33.299Z,1120
2023-09-17T06:16:46.236Z,1111.71
2023-09-17T06:17:33.414Z,1114.21
2023-09-17T06:17:35.988Z,1113.36
2023-09-17T06:18:33.326Z,1120
2023-09-17T06:18:35.952Z,1113.36
2023-09-17T06:26:36.020Z,1232.5
2023-09-17T06:27:36.038Z,1250.86
2023-09-17T06:28:36.052Z,1290.86
2023-09-17T06:29:36.058Z,1320
2023-09-17T06:30:36.041Z,1369.21
2023-09-17T06:31:36.097Z,1418.36
2023-09-17T06:32:36.104Z,1520
2023-09-17T06:33:36.063Z,1486.71
2023-09-17T06:34:36.148Z,1474.21
2023-09-17T06:35:36.090Z,1497.5
2023-09-17T06:36:36.109Z,1610
2023-09-17T06:37:36.115Z,1668.36
2023-09-17T06:38:36.112Z,1792.5
2023-09-17T06:39:36.121Z,2004.21
2023-09-17T06:40:36.177Z,1987.5
2023-09-17T06:41:38.120Z,1831.71
2023-09-17T06:42:36.151Z,1796.71
2023-09-17T06:43:36.231Z,1910
2023-09-17T06:44:36.161Z,2102.5
2023-09-17T06:45:36.172Z,2330
2023-09-17T06:46:36.261Z,3004.21
2023-09-17T06:47:36.307Z,3960
2023-09-17T06:48:36.183Z,3470
2023-09-17T06:49:28.046Z,3156.71
2023-09-17T06:49:36.222Z,2955.86
2023-09-17T06:50:28.040Z,2672.5
2023-09-17T06:51:28.047Z,2245.86
2023-09-17T06:52:28.113Z,2098.36
2023-09-17T06:53:28.073Z,2082.5
2023-09-17T06:54:28.077Z,2056.71
2023-09-17T06:55:28.138Z,2056.71
2023-09-17T06:56:28.093Z,2045.86
2023-09-17T06:57:28.091Z,2064.21
2023-09-17T06:58:28.131Z,2081.71
2023-09-17T06:59:28.116Z,2085
2023-09-17T07:00:28.133Z,2080
2023-09-17T07:01:28.200Z,2074.21
2023-09-17T07:02:28.235Z,2086.71
2023-09-17T07:03:28.163Z,2042.5
2023-09-17T07:04:28.230Z,2040
2023-09-17T07:05:28.215Z,2070.86
2023-09-17T07:05:33.809Z,2072.5
2023-09-17T07:06:28.195Z,2095
2023-09-17T07:06:33.758Z,2085.86
2023-09-17T07:07:28.227Z,2106.71
2023-09-17T07:07:33.799Z,2105
2023-09-17T07:08:28.208Z,2130.86
2023-09-17T07:08:33.792Z,2105
2023-09-17T07:09:28.218Z,2130.86
2023-09-17T07:09:33.789Z,2133.36
2023-09-17T07:10:28.269Z,2120.86
2023-09-17T07:10:33.818Z,2133.36
2023-09-17T07:11:33.804Z,2112.5
2023-09-17T07:12:33.818Z,2095.86
2023-09-17T07:13:33.859Z,2095.86
2023-09-17T07:14:33.854Z,2095.86
2023-09-17T07:15:36.371Z,2124.21
2023-09-17T07:16:36.416Z,2129.21
2023-09-17T07:17:36.540Z,2135.86
2023-09-17T07:18:36.414Z,2151.71
2023-09-17T07:19:36.477Z,2166.71
2023-09-17T07:20:36.453Z,2167.5
2023-09-17T07:21:36.477Z,2165.86
2023-09-17T07:28:34.004Z,2760
2023-09-17T07:29:33.999Z,2952.5
2023-09-17T07:30:36.523Z,2635
2023-09-17T07:31:36.612Z,2384.21
2023-09-17T07:32:36.594Z,2243.36
2023-09-17T07:33:36.553Z,2203.36
2023-09-17T07:34:36.721Z,2177.5
2023-09-17T07:35:36.572Z,2176.71
2023-09-17T07:36:36.585Z,2170.86
2023-09-17T07:37:50.081Z,2165.86
2023-09-17T07:39:28.537Z,2145
2023-09-17T07:40:28.563Z,2145
2023-09-17T07:41:28.526Z,2172.5
2023-09-17T07:42:28.531Z,2163.36
2023-09-17T07:43:28.646Z,2087.5
2023-09-17T07:43:36.682Z,2105
2023-09-17T07:44:36.636Z,2105
2023-09-17T07:45:36.646Z,2085
2023-09-17T07:46:36.715Z,2102.5
2023-09-17T07:47:36.709Z,2138.36
2023-09-17T07:48:36.682Z,2160
2023-09-17T07:49:28.661Z,2190
2023-09-17T07:49:34.189Z,2200
2023-09-17T07:49:36.705Z,2196.71
2023-09-17T07:50:34.177Z,2245
2023-09-17T07:50:36.693Z,2249.21
2023-09-17T07:51:34.191Z,2299.21
2023-09-17T07:51:36.706Z,2285
2023-09-17T07:52:34.210Z,2327.5
2023-09-17T07:52:36.785Z,2330
2023-09-17T07:53:34.227Z,2340.86
2023-09-17T07:54:34.230Z,2349.21
2023-09-17T07:55:34.267Z,2365.86
2023-09-17T07:56:34.253Z,2355.86
2023-09-17T07:57:36.747Z,2312.5
2023-09-17T07:58:36.775Z,2260
2023-09-17T07:59:36.770Z,2221.71
2023-09-17T08:00:36.796Z,2195
2023-09-17T08:03:36.872Z,2058.36
2023-09-17T08:04:36.990Z,2016.71
2023-09-17T08:24:28.900Z,1727.5
2023-09-17T08:25:28.982Z,1727.5
2023-09-17T08:26:28.916Z,1740.86
2023-09-17T08:27:28.924Z,1753.36
2023-09-17T08:28:28.960Z,1765.86
2023-09-17T08:29:28.943Z,1786.71
2023-09-17T08:30:28.975Z,1801.71
2023-09-17T08:31:28.965Z,1801.71
2023-09-17T08:32:28.995Z,1801.71
2023-09-17T08:33:28.981Z,1833.36
2023-09-17T08:34:29.003Z,1833.36
2023-09-17T08:35:29.010Z,1849.21
2023-09-17T08:36:29.015Z,1862.5
2023-09-17T08:37:29.064Z,1890
2023-09-17T08:38:29.040Z,1905.86
2023-09-17T08:39:29.047Z,1920
2023-09-17T08:40:31.364Z,1920
2023-09-17T08:41:29.069Z,1925.86
2023-09-17T08:42:29.098Z,1924.21
2023-09-17T08:43:29.140Z,1915
2023-09-17T08:44:29.134Z,1925
2023-09-17T08:45:34.672Z,1891.71
2023-09-17T08:46:34.707Z,1880
2023-09-17T08:47:34.726Z,1912.5
2023-09-17T08:48:34.693Z,1870.86
2023-09-17T08:49:34.714Z,1810
2023-09-17T08:50:34.703Z,1792.5
2023-09-17T08:51:29.177Z,1910
2023-09-17T08:51:34.715Z,1895
2023-09-17T08:52:29.203Z,2127.5
2023-09-17T08:52:37.250Z,2129.21
2023-09-17T08:53:29.194Z,1961.71
2023-09-17T08:53:37.253Z,1885.86
2023-09-17T08:54:29.208Z,1667.5
2023-09-17T08:55:29.250Z,1644.21
2023-09-17T08:56:29.225Z,1655
2023-09-17T08:57:29.227Z,1602.5
2023-09-17T08:58:29.254Z,1571.71
2023-09-17T08:58:37.294Z,1577.5
2023-09-17T08:59:37.256Z,1553.36
2023-09-17T09:00:29.255Z,1547.5
2023-09-17T09:00:37.280Z,1530.86
2023-09-17T09:01:29.336Z,1498.36
2023-09-17T09:01:37.381Z,1500
2023-09-17T09:02:29.374Z,1446.71
2023-09-17T09:02:37.362Z,1460
2023-09-17T09:03:29.457Z,1426.71
2023-09-17T09:03:37.387Z,1425.86
2023-09-17T09:04:29.349Z,1446.71
2023-09-17T09:04:37.362Z,1440
2023-09-17T09:05:34.820Z,1398.36
2023-09-17T09:05:37.341Z,1404.21
2023-09-17T09:06:34.825Z,1395
2023-09-17T09:07:34.876Z,1395
2023-09-17T09:08:34.863Z,1438.36
2023-09-17T09:09:34.881Z,1472.5
2023-09-17T09:10:34.918Z,1445
2023-09-17T09:11:34.910Z,1507.5
2023-09-17T09:12:34.924Z,1530
2023-09-17T09:13:34.965Z,1577.5
2023-09-17T09:14:34.954Z,1595.86
2023-09-17T09:15:34.947Z,1590.86
2023-09-17T09:16:35.109Z,1557.5
2023-09-17T09:16:37.664Z,1556.71
2023-09-17T09:17:37.451Z,1530
2023-09-17T09:32:29.639Z,1720.86
2023-09-17T09:33:29.585Z,1788.36
2023-09-17T09:34:29.572Z,1795.86
2023-09-17T09:35:29.551Z,1769.21
2023-09-17T09:36:29.579Z,1716.71
2023-09-17T09:37:29.612Z,1606.71
2023-09-17T09:38:29.582Z,1552.5
2023-09-17T09:39:29.579Z,1497.5
2023-09-17T09:40:29.650Z,1503.36
2023-09-17T09:41:29.612Z,1493.36
2023-09-17T09:42:29.638Z,1480
2023-09-17T09:43:29.801Z,1425
2023-09-17T09:44:29.656Z,1396.71
2023-09-17T09:45:29.779Z,1397.5
2023-09-17T09:46:29.933Z,1442.5
2023-09-17T09:48:37.691Z,1555
2023-09-17T09:49:37.739Z,1576.71
2023-09-17T09:50:37.705Z,1576.71
2023-09-17T09:51:37.709Z,1547.5
2023-09-17T09:52:37.742Z,1481.71
2023-09-17T09:53:29.728Z,1447.5
2023-09-17T09:53:37.709Z,1417.5
2023-09-17T09:54:29.731Z,1368.36
2023-09-17T09:54:37.721Z,1365.86
2023-09-17T09:55:29.798Z,1310
2023-09-17T09:55:37.778Z,1307.5
2023-09-17T09:56:29.834Z,1245.86
2023-09-17T09:56:37.745Z,1242.5
2023-09-17T09:57:29.794Z,1198.36
2023-09-17T09:57:40.190Z,1195
2023-09-17T09:58:35.290Z,1156.71
2023-09-17T09:58:37.783Z,1155
2023-09-17T09:59:35.259Z,1127.5
2023-09-17T09:59:37.767Z,1118.36
2023-09-17T10:00:35.265Z,1100.86
2023-09-17T10:00:37.774Z,1090.86
2023-09-17T10:01:35.325Z,1084.21
2023-09-17T10:01:37.885Z,1081.71
2023-09-17T10:02:35.316Z,1071.71
2023-09-17T10:02:37.828Z,1068.36
2023-09-17T10:03:37.813Z,1053.36
2023-09-17T10:04:37.881Z,1049.21
2023-09-17T10:05:37.806Z,1044.21
2023-09-17T10:12:29.851Z,1036.71
2023-09-17T10:24:35.438Z,996.714
2023-09-17T10:27:29.968Z,990.857
2023-09-17T10:28:30.059Z,990
2023-09-17T10:29:29.988Z,990.857
2023-09-17T10:30:30.008Z,990.857
2023-09-17T10:31:30.049Z,992.5
2023-09-17T10:32:30.069Z,992.5
2023-09-17T10:33:30.023Z,1001.71
2023-09-17T10:34:30.058Z,1010
2023-09-17T10:34:38.105Z,1006.71
2023-09-17T10:35:30.034Z,1010
2023-09-17T10:35:38.091Z,1016.71
2023-09-17T10:36:30.034Z,1022.5
2023-09-17T10:36:38.098Z,1016.71
2023-09-17T10:37:30.080Z,1022.5
2023-09-17T10:37:35.582Z,1023.36
2023-09-17T10:37:38.213Z,1022.5
2023-09-17T10:38:30.047Z,1021.71
2023-09-17T10:38:35.608Z,1023.36
2023-09-17T10:38:38.218Z,1022.5
2023-09-17T10:39:30.054Z,1021.71
2023-09-17T10:39:35.544Z,1023.36
2023-09-17T10:39:38.139Z,1022.5
2023-09-17T10:40:30.130Z,1021.71
2023-09-17T10:40:35.556Z,1021.71
2023-09-17T10:40:38.190Z,1022.5
2023-09-17T10:41:30.073Z,1021.71
2023-09-17T10:41:35.548Z,1023.36
2023-09-17T10:41:38.143Z,1021.71
2023-09-17T10:42:30.079Z,1024.21
2023-09-17T10:42:35.560Z,1023.36
2023-09-17T10:42:38.150Z,1023.36
2023-09-17T10:43:30.119Z,1022.5
2023-09-17T10:43:35.610Z,1023.36
2023-09-17T10:43:38.264Z,1022.5
2023-09-17T10:44:30.094Z,1020.86
2023-09-17T10:44:35.586Z,1023.36
2023-09-17T10:44:38.468Z,1020.86
2023-09-17T10:45:30.096Z,1029.21
2023-09-17T10:45:35.595Z,1027.5
2023-09-17T10:45:38.165Z,1023.36
2023-09-17T10:46:30.163Z,1030
2023-09-17T10:46:35.693Z,1030
2023-09-17T10:46:38.225Z,1023.36
2023-09-17T10:47:30.186Z,1030
2023-09-17T10:47:35.755Z,1020.86
2023-09-17T10:47:38.244Z,1020
2023-09-17T10:48:30.117Z,1017.5
2023-09-17T10:48:35.631Z,1015
2023-09-17T10:48:38.205Z,1015
2023-09-17T10:49:30.152Z,1017.5
2023-09-17T10:49:35.667Z,1014.21
2023-09-17T10:49:38.470Z,1015
2023-09-17T10:50:30.122Z,1017.5
2023-09-17T10:50:35.648Z,1014.21
2023-09-17T10:51:30.145Z,1010.86
2023-09-17T10:51:38.241Z,1011.71
2023-09-17T10:52:30.165Z,1013.36
2023-09-17T10:52:38.372Z,1011.71
2023-09-17T10:53:30.177Z,1013.36
2023-09-17T10:53:38.254Z,1011.71
2023-09-17T10:54:30.186Z,1013.36
2023-09-17T10:54:38.256Z,1010
2023-09-17T10:55:30.202Z,1013.36
2023-09-17T10:55:38.328Z,1013.36
2023-09-17T10:56:30.205Z,1020.86
2023-09-17T10:56:38.273Z,1027.5
2023-09-17T10:57:30.211Z,1107.5
2023-09-17T10:57:38.280Z,1128.36
2023-09-17T10:58:30.243Z,1264.21
2023-09-17T10:58:38.338Z,1261.71
2023-09-17T10:59:30.222Z,1289.21
2023-09-17T10:59:38.293Z,1290
2023-09-17T11:00:30.228Z,1231.71
2023-09-17T11:00:38.345Z,1211.71
2023-09-17T11:01:35.853Z,1125.86
2023-09-17T11:01:38.338Z,1131.71
2023-09-17T11:02:35.842Z,1068.36
2023-09-17T11:02:38.453Z,1093.36
2023-09-17T11:03:38.391Z,1005
2023-09-17T11:04:38.366Z,982.5
2023-09-17T11:05:38.355Z,968.357
2023-09-17T11:06:35.801Z,965.857
2023-09-17T11:06:38.361Z,963.357
2023-09-17T11:07:35.805Z,965.857
2023-09-17T11:07:38.475Z,963.357
2023-09-17T11:08:35.793Z,963.357
2023-09-17T11:08:38.378Z,963.357
2023-09-17T11:09:35.811Z,965
2023-09-17T11:09:38.375Z,963.357
2023-09-17T11:10:35.880Z,965
2023-09-17T11:10:38.406Z,963.357
2023-09-17T11:11:35.834Z,965
2023-09-17T11:12:35.844Z,965
2023-09-17T11:13:35.903Z,965.857
2023-09-17T11:14:35.874Z,965
2023-09-17T11:15:38.438Z,966.714
2023-09-17T11:16:38.625Z,955
2023-09-17T11:17:30.500Z,950
2023-09-17T11:17:38.539Z,955
2023-09-17T11:18:30.389Z,943.357
2023-09-17T11:19:30.462Z,935.857
2023-09-17T11:20:30.425Z,934.214
2023-09-17T11:21:30.440Z,929.214
2023-09-17T11:22:30.478Z,927.5
2023-09-17T11:23:30.442Z,929.214
2023-09-17T11:24:30.446Z,933.357
2023-09-17T11:25:30.450Z,933.357
2023-09-17T11:26:30.476Z,929.214
2023-09-17T11:39:36.061Z,837.5
2023-09-17T11:40:36.123Z,832.5
2023-09-17T11:40:38.667Z,836.714
2023-09-17T11:41:37.678Z,831.714
2023-09-17T11:41:38.633Z,831.714
2023-09-17T11:42:36.101Z,827.5
2023-09-17T11:42:38.639Z,826.714
2023-09-17T11:43:36.115Z,827.5
2023-09-17T11:43:38.669Z,823.357
2023-09-17T11:44:36.100Z,820
2023-09-17T11:44:38.649Z,819.214
2023-09-17T11:45:36.113Z,817.5
2023-09-17T11:45:38.658Z,819.214
2023-09-17T11:46:36.186Z,817.5
2023-09-17T11:46:38.799Z,817.5
2023-09-17T11:47:36.189Z,817.5
2023-09-17T11:47:38.704Z,817.5
2023-09-17T11:48:36.150Z,817.5
2023-09-17T11:48:38.695Z,819.214
2023-09-17T11:49:36.180Z,821.714
2023-09-17T11:49:38.834Z,822.5
2023-09-17T11:50:36.158Z,823.357
2023-09-17T11:50:38.716Z,822.5
2023-09-17T11:51:36.159Z,825.857
2023-09-17T11:52:30.844Z,828.357